Time;durP1;ratioP1;P1;durP2;ratioP2;P2;SDS_P1;SDS_P2;PMS_P1;PMS_P2;Temp;Humidity;BMP_temperature;BMP_pressure;BME280_temperature;BME280_humidity;BME280_pressure;Samples;Min_cycle;Max_cycle;Signal;HPM_P1;HPM_P2
2023/08/07 00:00:48;;;;;;;5.90;2.30;;;14.30;99.90;;;14.29;100.00;100641.28;5195488;28;20060;-48
2023/08/07 00:03:23;;;;;;;5.03;1.65;;;14.20;99.90;;;14.29;100.00;100638.69;5188101;28;20045;-50
2023/08/07 00:05:56;;;;;;;6.95;1.73;;;14.20;99.90;;;14.29;100.00;100639.56;5184768;28;20403;-48
2023/08/07 00:08:31;;;;;;;7.97;1.70;;;14.30;99.90;;;14.27;100.00;100646.50;5195451;28;20049;-49
2023/08/07 00:11:07;;;;;;;5.07;1.85;;;14.20;99.90;;;14.26;100.00;100643.84;5194314;28;20041;-49
2023/08/07 00:13:43;;;;;;;6.72;2.00;;;14.20;99.90;;;14.24;100.00;100643.81;5189888;28;20407;-49
2023/08/07 00:16:15;;;;;;;5.38;1.75;;;14.20;99.90;;;14.21;100.00;100650.75;5187397;28;20049;-50
2023/08/07 00:18:47;;;;;;;7.30;1.95;;;14.20;99.90;;;14.15;100.00;100651.53;5194218;28;20053;-50
2023/08/07 00:21:20;;;;;;;6.43;1.80;;;14.10;99.90;;;14.12;100.00;100651.47;5194243;28;20045;-48
2023/08/07 00:23:54;;;;;;;6.00;1.85;;;14.10;99.90;;;14.12;100.00;100652.34;5192452;28;20054;-48
2023/08/07 00:26:27;;;;;;;7.72;1.98;;;14.10;99.90;;;14.07;100.00;100645.25;5202169;28;20072;-49
2023/08/07 00:28:59;;;;;;;4.30;1.88;;;14.10;99.90;;;14.02;100.00;100654.78;5190140;28;20127;-49
2023/08/07 00:31:32;;;;;;;6.25;1.90;;;14.00;99.90;;;13.98;100.00;100659.09;5195965;28;20083;-51
2023/08/07 00:34:04;;;;;;;6.85;2.67;;;14.00;99.90;;;13.99;100.00;100654.72;5192391;28;20042;-49
2023/08/07 00:36:36;;;;;;;3.72;1.70;;;14.00;99.90;;;13.96;100.00;100649.44;5197672;28;20041;-48
2023/08/07 00:39:10;;;;;;;10.50;2.33;;;13.90;99.90;;;13.93;100.00;100662.47;5195151;28;20052;-48
2023/08/07 00:41:45;;;;;;;10.15;2.42;;;13.90;99.90;;;13.88;100.00;100656.25;5197223;28;20038;-48
2023/08/07 00:44:18;;;;;;;6.65;1.88;;;13.90;99.90;;;13.88;100.00;100657.13;5193043;28;20048;-49
2023/08/07 00:46:51;;;;;;;5.15;1.48;;;13.80;99.90;;;13.84;100.00;100660.56;5194996;28;20053;-49
2023/08/07 00:49:24;;;;;;;8.65;2.13;;;13.80;99.90;;;13.87;100.00;100649.25;5196755;28;20119;-50
2023/08/07 00:51:56;;;;;;;9.48;2.88;;;13.80;99.90;;;13.87;100.00;100654.47;5188949;28;20041;-50
2023/08/07 00:54:30;;;;;;;7.28;1.60;;;13.80;99.90;;;13.88;100.00;100658.88;5195052;28;20423;-49
2023/08/07 00:57:11;;;;;;;4.97;1.77;;;13.80;99.90;;;13.89;100.00;100658.91;5201686;28;20289;-50
2023/08/07 00:59:45;;;;;;;5.45;1.88;;;13.80;99.90;;;13.89;100.00;100671.09;5189502;28;20054;-50
2023/08/07 01:02:17;;;;;;;6.15;1.80;;;13.80;99.90;;;13.90;100.00;100670.28;5197398;28;20045;-50
2023/08/07 01:04:51;;;;;;;6.22;1.90;;;13.90;99.90;;;13.91;100.00;100674.66;5199801;28;20069;-50
2023/08/07 01:07:23;;;;;;;6.78;2.00;;;13.90;99.90;;;13.91;100.00;100674.66;5196466;28;20049;-48
2023/08/07 01:10:02;;;;;;;7.43;2.10;;;13.90;99.90;;;13.83;100.00;100664.91;5185780;28;20068;-50
2023/08/07 01:12:48;;;;;;;5.40;2.25;;;13.80;99.90;;;13.80;100.00;100675.31;5200861;28;20533;-48
2023/08/07 01:15:28;;;;;;;6.53;1.92;;;13.80;99.90;;;13.79;100.00;100677.91;5192070;28;20050;-49
2023/08/07 01:18:01;;;;;;;7.82;1.85;;;13.80;99.90;;;13.76;100.00;100678.75;5196197;28;20053;-48
2023/08/07 01:20:34;;;;;;;6.47;1.92;;;13.80;99.90;;;13.76;100.00;100678.75;5192223;28;20209;-50
2023/08/07 01:23:08;;;;;;;7.68;1.55;;;13.70;99.90;;;13.77;100.00;100671.78;5197162;28;20383;-48
2023/08/07 01:25:43;;;;;;;5.13;1.80;;;13.80;99.90;;;13.77;100.00;100677.00;5193800;28;20092;-50
2023/08/07 01:28:28;;;;;;;11.98;2.47;;;13.70;99.90;;;13.77;100.00;100670.03;5197192;28;20150;-50
2023/08/07 01:31:07;;;;;;;7.25;2.25;;;13.80;99.90;;;13.80;100.00;100670.09;5199157;28;20061;-49
2023/08/07 01:33:48;;;;;;;8.82;2.13;;;13.80;99.90;;;13.81;100.00;100658.75;5205158;28;20053;-49
2023/08/07 01:36:24;;;;;;;6.30;1.85;;;13.80;99.90;;;13.81;100.00;100670.97;5205512;28;20072;-49
2023/08/07 01:39:00;;;;;;;4.43;1.33;;;13.80;99.90;;;13.82;100.00;100668.41;5191239;28;20049;-48
2023/08/07 01:41:32;;;;;;;6.38;1.42;;;13.80;99.90;;;13.84;100.00;100676.28;5199399;28;20052;-49
2023/08/07 01:44:06;;;;;;;6.82;1.58;;;13.80;99.90;;;13.85;100.00;100684.16;5204035;28;20041;-50
2023/08/07 01:46:38;;;;;;;6.07;2.20;;;13.80;99.90;;;13.82;100.00;100671.03;5187861;28;20061;-50
2023/08/07 01:49:11;;;;;;;8.20;1.75;;;13.80;99.90;;;13.83;100.00;100674.53;5205120;28;20042;-50
2023/08/07 01:51:47;;;;;;;5.18;1.88;;;13.80;99.90;;;13.83;100.00;100685.00;5203596;28;20059;-48
2023/08/07 01:54:20;;;;;;;8.30;2.17;;;13.80;99.90;;;13.83;100.00;100675.41;5204396;28;20045;-49
2023/08/07 01:56:53;;;;;;;11.18;2.45;;;13.80;99.90;;;13.85;100.00;100685.91;5195488;28;20053;-51
2023/08/07 01:59:26;;;;;;;8.10;2.00;;;13.80;99.90;;;13.87;100.00;100688.53;5195612;28;20499;-50
2023/08/07 02:01:58;;;;;;;8.18;2.58;;;13.80;99.90;;;13.92;100.00;100684.28;5203289;28;20041;-51
2023/08/07 02:04:31;;;;;;;4.25;1.60;;;13.90;99.90;;;13.93;100.00;100680.81;5203675;28;20045;-51
2023/08/07 02:07:04;;;;;;;5.13;2.13;;;13.90;99.90;;;13.95;100.00;100690.44;5195191;28;20053;-48
2023/08/07 02:09:41;;;;;;;6.00;1.88;;;13.90;99.90;;;13.98;100.00;100681.78;5195740;28;20052;-50
2023/08/07 02:12:14;;;;;;;9.18;1.90;;;13.90;99.90;;;13.96;100.00;100683.50;5187820;28;20457;-50
2023/08/07 02:14:47;;;;;;;5.63;1.90;;;13.90;99.90;;;13.95;100.00;100689.56;5195689;28;20061;-49
2023/08/07 02:17:22;;;;;;;8.68;2.05;;;13.90;99.90;;;13.98;100.00;100698.38;5198313;28;20034;-50
2023/08/07 02:19:58;;;;;;;6.32;2.00;;;14.00;99.90;;;13.99;100.00;100696.66;5192769;28;20072;-49
2023/08/07 02:22:30;;;;;;;5.10;1.65;;;14.00;99.90;;;14.02;100.00;100705.47;5188613;28;20045;-49
2023/08/07 02:25:05;;;;;;;4.93;1.95;;;14.00;99.90;;;14.02;100.00;100707.22;5194359;28;20514;-51
2023/08/07 02:27:37;;;;;;;4.72;1.73;;;14.00;99.90;;;14.06;100.00;100698.53;5197265;28;20041;-51
2023/08/07 02:30:12;;;;;;;6.03;1.75;;;14.00;99.90;;;14.09;100.00;100696.00;5187149;28;20518;-51
2023/08/07 02:32:46;;;;;;;5.43;1.77;;;14.10;99.90;;;14.08;100.00;100691.56;5195217;28;20047;-49
2023/08/07 02:35:18;;;;;;;5.95;1.70;;;14.10;99.90;;;14.08;100.00;100702.06;5195201;28;20573;-50
2023/08/07 02:37:51;;;;;;;8.90;2.40;;;14.00;99.90;;;14.09;100.00;100699.50;5185684;28;20373;-50
2023/08/07 02:40:24;;;;;;;5.90;2.58;;;14.00;99.90;;;14.09;100.00;100699.50;5196125;28;20052;-50
2023/08/07 02:42:57;;;;;;;6.60;1.85;;;14.00;99.90;;;14.09;100.00;100703.84;5191312;28;20037;-49
2023/08/07 02:45:29;;;;;;;5.28;1.92;;;14.10;99.90;;;14.09;100.00;100703.84;5196673;28;20042;-49
2023/08/07 02:48:01;;;;;;;5.43;2.00;;;14.00;99.90;;;14.10;100.00;100697.75;5195661;28;20422;-50
2023/08/07 02:50:34;;;;;;;6.05;2.00;;;14.00;99.90;;;14.08;100.00;100707.28;5202865;28;20042;-50
2023/08/07 02:53:07;;;;;;;4.18;1.70;;;14.00;99.90;;;14.08;100.00;100712.53;5186584;28;20124;-50
2023/08/07 02:55:43;;;;;;;7.90;2.15;;;14.10;99.90;;;14.08;100.00;100712.53;5203178;28;20536;-49
2023/08/07 02:58:16;;;;;;;4.32;1.90;;;14.00;99.90;;;14.07;100.00;100716.91;5202848;28;20042;-50
2023/08/07 03:00:48;;;;;;;6.97;1.77;;;14.00;99.90;;;14.07;100.00;100716.03;5202061;28;20045;-51
2023/08/07 03:03:20;;;;;;;7.32;1.92;;;14.00;99.90;;;14.06;100.00;100717.75;5190271;28;20041;-50
2023/08/07 03:05:54;;;;;;;7.35;1.80;;;14.00;99.90;;;14.04;100.00;100721.22;5191453;28;20441;-50
2023/08/07 03:08:26;;;;;;;5.70;1.85;;;14.00;99.90;;;13.99;100.00;100725.47;5194643;28;20056;-50
2023/08/07 03:11:00;;;;;;;4.05;1.58;;;14.00;99.90;;;13.97;100.00;100720.22;5192562;28;20041;-49
2023/08/07 03:13:33;;;;;;;6.28;1.73;;;14.00;99.90;;;13.95;100.00;100728.88;5190580;28;20052;-49
2023/08/07 03:16:07;;;;;;;8.25;2.00;;;13.90;99.90;;;13.89;100.00;100719.19;5201018;28;20049;-49
2023/08/07 03:18:40;;;;;;;6.22;1.83;;;13.90;99.90;;;13.84;100.00;100718.19;5194070;28;20045;-51
2023/08/07 03:21:12;;;;;;;8.00;2.30;;;13.90;99.90;;;13.81;100.00;100712.88;5194371;28;20050;-49
2023/08/07 03:23:46;;;;;;;5.60;1.73;;;13.80;99.90;;;13.77;100.00;100714.56;5193841;28;20034;-49
2023/08/07 03:26:20;;;;;;;9.98;2.72;;;13.70;99.90;;;13.74;100.00;100708.38;5189987;28;20046;-49
2023/08/07 03:28:54;;;;;;;5.43;1.90;;;13.70;99.90;;;13.73;100.00;100707.50;5198741;28;20422;-50
2023/08/07 03:31:27;;;;;;;3.72;1.92;;;13.70;99.90;;;13.72;100.00;100713.59;5196753;28;20061;-48
2023/08/07 03:34:02;;;;;;;6.05;1.95;;;13.70;99.90;;;13.73;100.00;100717.97;5191395;28;20049;-50
2023/08/07 03:36:35;;;;;;;4.30;1.92;;;13.70;99.90;;;13.71;100.00;100714.44;5202092;28;20065;-47
2023/08/07 03:39:07;;;;;;;7.35;2.28;;;13.70;99.90;;;13.67;100.00;100724.81;5201546;28;20052;-49
2023/08/07 03:41:41;;;;;;;9.68;2.05;;;13.60;99.90;;;13.64;100.00;100720.41;5201827;28;20045;-49
2023/08/07 03:44:17;;;;;;;7.65;2.17;;;13.60;99.90;;;13.60;100.00;100721.19;5193870;28;20383;-50
2023/08/07 03:46:50;;;;;;;7.38;2.50;;;13.60;99.90;;;13.60;100.00;100717.69;5193740;28;20056;-49
2023/08/07 03:49:26;;;;;;;6.57;2.50;;;13.60;99.90;;;13.59;100.00;100732.53;5202602;28;20087;-50
2023/08/07 03:52:00;;;;;;;6.30;2.22;;;13.60;99.90;;;13.61;100.00;100725.56;5193450;28;20061;-51
2023/08/07 03:54:32;;;;;;;4.30;1.83;;;13.60;99.90;;;13.67;100.00;100724.81;5194951;28;20474;-51
2023/08/07 03:57:08;;;;;;;5.97;2.40;;;13.60;99.90;;;13.71;100.00;100721.41;5199875;28;20410;-51
2023/08/07 03:59:40;;;;;;;7.60;2.20;;;13.70;99.90;;;13.69;100.00;100723.09;5186287;28;20045;-48
2023/08/07 04:02:16;;;;;;;5.07;2.00;;;13.60;99.90;;;13.68;100.00;100721.34;5200904;28;20060;-50
2023/08/07 04:04:51;;;;;;;6.45;2.13;;;13.60;99.90;;;13.69;100.00;100724.03;5185674;28;20041;-48
2023/08/07 04:07:24;;;;;;;8.52;2.42;;;13.60;99.90;;;13.68;100.00;100727.47;5195541;28;20048;-50
2023/08/07 04:09:56;;;;;;;10.05;2.58;;;13.60;99.90;;;13.67;100.00;100719.59;5200132;28;20503;-49
2023/08/07 04:12:30;;;;;;;5.55;2.22;;;13.60;99.90;;;13.63;100.00;100718.66;5189105;28;20045;-49
2023/08/07 04:15:02;;;;;;;7.20;2.83;;;13.60;99.90;;;13.61;100.00;100733.44;5190926;28;20581;-48
2023/08/07 04:17:34;;;;;;;5.68;1.80;;;13.60;99.90;;;13.57;100.00;100731.59;5194716;28;20041;-48
2023/08/07 04:20:10;;;;;;;6.28;2.05;;;13.60;99.90;;;13.53;100.00;100740.25;5201325;28;20079;-51
2023/08/07 04:22:42;;;;;;;7.65;2.00;;;13.50;99.90;;;13.50;100.00;100735.84;5193252;28;20099;-50
2023/08/07 04:25:15;;;;;;;6.55;2.08;;;13.50;99.90;;;13.47;100.00;100738.38;5193340;28;20139;-49
2023/08/07 04:27:49;;;;;;;8.77;1.85;;;13.50;99.90;;;13.45;100.00;100745.31;5202616;28;20041;-48
2023/08/07 04:30:21;;;;;;;5.18;2.08;;;13.50;99.90;;;13.45;100.00;100754.91;5192790;28;20041;-49
2023/08/07 04:32:55;;;;;;;6.47;2.08;;;13.40;99.90;;;13.43;100.00;100751.34;5192331;28;20073;-49
2023/08/07 04:35:27;;;;;;;7.88;2.15;;;13.40;99.90;;;13.38;100.00;100746.03;5185868;28;20049;-49
2023/08/07 04:38:00;;;;;;;7.82;2.00;;;13.40;99.90;;;13.35;100.00;100751.19;5200696;28;20529;-49
2023/08/07 04:40:33;;;;;;;4.70;2.08;;;13.30;99.90;;;13.32;100.00;100752.84;5192492;28;20073;-49
2023/08/07 04:43:07;;;;;;;5.65;1.88;;;13.30;99.90;;;13.32;100.00;100752.84;5193058;28;20411;-49
2023/08/07 04:45:39;;;;;;;6.65;2.33;;;13.30;99.90;;;13.33;100.00;100754.63;5186392;28;20049;-49
2023/08/07 04:48:12;;;;;;;5.32;2.13;;;13.30;99.90;;;13.40;100.00;100753.91;5183088;28;20049;-48
2023/08/07 04:50:44;;;;;;;6.47;2.50;;;13.40;99.90;;;13.45;100.00;100754.91;5193585;28;20050;-50
2023/08/07 04:53:17;;;;;;;10.27;2.33;;;13.40;99.90;;;13.46;100.00;100747.06;5185410;28;20084;-50
2023/08/07 04:55:49;;;;;;;7.97;2.83;;;13.40;99.90;;;13.44;100.00;100761.00;5200930;28;20041;-50
2023/08/07 04:58:23;;;;;;;10.07;2.92;;;13.40;99.90;;;13.44;100.00;100759.25;5196378;28;20136;-48
2023/08/07 05:00:56;;;;;;;7.38;2.53;;;13.40;99.90;;;13.46;100.00;100756.66;5188988;28;20049;-50
2023/08/07 05:03:30;;;;;;;6.25;2.67;;;13.40;99.90;;;13.50;100.00;100753.28;5196014;28;20030;-49
2023/08/07 05:06:03;;;;;;;9.32;2.85;;;13.50;99.90;;;13.51;100.00;100760.28;5189768;28;20059;-48
2023/08/07 05:08:35;;;;;;;9.60;2.90;;;13.50;99.90;;;13.52;100.00;100756.81;5186257;28;20054;-50
2023/08/07 05:11:08;;;;;;;6.28;2.92;;;13.50;99.90;;;13.58;100.00;100762.19;5190292;28;20049;-50
2023/08/07 05:13:41;;;;;;;8.10;2.63;;;13.50;99.90;;;13.58;100.00;100751.72;5200416;28;20430;-49
2023/08/07 05:16:14;;;;;;;9.43;2.63;;;13.50;99.90;;;13.55;100.00;100756.84;5197825;28;20053;-50
2023/08/07 05:18:46;;;;;;;6.55;3.20;;;13.50;99.90;;;13.57;100.00;100755.19;5187165;28;20052;-48
2023/08/07 05:21:19;;;;;;;9.23;2.88;;;13.50;99.90;;;13.61;100.00;100761.34;5200247;28;20057;-48
2023/08/07 05:23:53;;;;;;;11.90;3.22;;;13.60;99.90;;;13.61;100.00;100759.63;5184551;28;20042;-49
2023/08/07 05:26:25;;;;;;;10.20;3.10;;;13.60;99.90;;;13.61;100.00;100764.84;5192502;28;20050;-48
2023/08/07 05:28:59;;;;;;;6.53;2.50;;;13.50;99.90;;;13.62;100.00;100757.88;5199630;28;20042;-49
2023/08/07 05:31:31;;;;;;;6.07;2.60;;;13.50;99.90;;;13.61;100.00;100754.38;5200087;28;20525;-49
2023/08/07 05:34:04;;;;;;;5.55;2.50;;;13.60;99.90;;;13.66;100.00;100771.09;5199960;28;20045;-51
2023/08/07 05:36:37;;;;;;;5.60;2.28;;;13.60;99.90;;;13.69;100.00;100759.78;5192091;28;20517;-49
2023/08/07 05:39:10;;;;;;;6.65;2.05;;;13.60;99.90;;;13.72;100.00;100760.75;5189777;28;20096;-51
2023/08/07 05:41:42;;;;;;;4.32;1.83;;;13.70;99.90;;;13.75;100.00;100770.38;5194317;28;20053;-49
2023/08/07 05:44:16;;;;;;;8.07;2.40;;;13.70;99.90;;;13.80;100.00;100768.75;5192168;28;20046;-50
2023/08/07 05:46:48;;;;;;;8.40;2.20;;;13.70;99.90;;;13.79;100.00;100770.50;5191770;28;20048;-50
2023/08/07 05:49:22;;;;;;;7.03;2.53;;;13.70;99.90;;;13.82;100.00;100778.44;5191915;28;20041;-51
2023/08/07 05:51:54;;;;;;;4.80;1.73;;;13.80;99.90;;;13.85;100.00;100775.00;5191815;28;20061;-49
2023/08/07 05:54:27;;;;;;;5.90;1.90;;;13.80;99.90;;;13.87;100.00;100780.25;5199994;28;20165;-50
2023/08/07 05:56:59;;;;;;;6.30;1.98;;;13.80;99.90;;;13.87;100.00;100777.63;5199901;28;20069;-49
2023/08/07 05:59:34;;;;;;;6.57;1.98;;;13.80;99.90;;;13.90;100.00;100789.06;5199461;28;20042;-50
2023/08/07 06:02:07;;;;;;;;;;;13.80;99.90;;;13.91;100.00;100771.63;5192303;28;20566;-50
2023/08/07 06:04:40;;;;;;;5.40;2.08;;;13.90;99.90;;;13.94;100.00;100777.78;5186294;28;19929;-49
2023/08/07 06:07:12;;;;;;;5.65;1.85;;;13.90;99.90;;;13.94;100.00;100776.91;5180273;28;20141;-50
2023/08/07 06:09:45;;;;;;;8.43;2.05;;;13.90;99.90;;;13.94;100.00;100772.53;5187923;28;20442;-49
2023/08/07 06:12:17;;;;;;;5.40;2.13;;;13.90;99.90;;;13.98;100.00;100778.75;5190507;28;20049;-49
2023/08/07 06:14:51;;;;;;;10.52;2.33;;;13.90;99.90;;;13.99;100.00;100780.50;5192961;28;20050;-49
2023/08/07 06:17:23;;;;;;;7.90;1.90;;;13.90;99.90;;;14.02;100.00;100785.84;5193608;28;20060;-49
2023/08/07 06:19:56;;;;;;;7.28;1.98;;;13.90;99.90;;;13.99;100.00;100780.50;5195606;28;20041;-50
2023/08/07 06:22:32;;;;;;;8.45;2.60;;;13.90;99.90;;;14.00;100.00;100783.16;5195304;28;20490;-49
2023/08/07 06:25:06;;;;;;;8.05;2.10;;;13.90;99.90;;;13.93;100.00;100797.00;5187199;28;20709;-49
2023/08/07 06:27:39;;;;;;;6.45;1.83;;;13.90;99.90;;;13.88;100.00;100792.50;5203300;28;20053;-50
2023/08/07 06:30:14;;;;;;;5.95;1.88;;;13.80;99.90;;;13.84;100.00;100791.56;5193654;28;20064;-48
2023/08/07 06:32:47;;;;;;;4.22;1.90;;;13.80;99.90;;;13.83;100.00;100802.91;5199170;28;20045;-48
2023/08/07 06:35:19;;;;;;;6.82;2.00;;;13.80;99.90;;;13.82;100.00;100804.63;5192565;28;20049;-48
2023/08/07 06:37:52;;;;;;;5.20;1.70;;;13.80;99.90;;;13.78;100.00;100810.66;5190033;28;20053;-48
2023/08/07 06:40:27;;;;;;;10.02;2.42;;;13.80;99.90;;;13.74;100.00;100803.56;5191961;28;20046;-49
2023/08/07 06:42:59;;;;;;;7.53;2.00;;;13.70;99.90;;;13.71;100.00;100806.13;5183210;28;20049;-48
2023/08/07 06:45:33;;;;;;;5.13;1.67;;;13.70;99.90;;;13.66;100.00;100814.72;5202875;28;20340;-48
2023/08/07 06:48:05;;;;;;;7.50;2.30;;;13.70;99.90;;;13.60;100.00;100810.22;5194168;28;20092;-49
2023/08/07 06:50:38;;;;;;;4.43;1.95;;;13.60;99.90;;;13.57;100.00;100820.66;5183099;28;20499;-47
2023/08/07 06:53:10;;;;;;;5.45;2.13;;;13.60;99.90;;;13.57;100.00;100818.03;5191275;28;20058;-48
2023/08/07 06:55:43;;;;;;;7.57;2.17;;;13.60;99.90;;;13.96;100.00;100823.28;5188573;28;20053;-47
2023/08/07 06:58:18;;;;;;;5.97;2.22;;;13.90;99.90;;;14.14;100.00;100828.00;5186597;28;20133;-49
2023/08/07 07:00:52;;;;;;;4.38;1.58;;;14.10;99.90;;;14.39;100.00;100818.91;5195133;28;20067;-48
2023/08/07 07:03:24;;;;;;;6.85;1.90;;;14.40;99.90;;;14.30;100.00;100822.22;5204740;28;20052;-48
2023/08/07 07:05:57;;;;;;;6.78;2.08;;;14.40;99.90;;;14.15;100.00;100828.88;5194934;28;20056;-48
2023/08/07 07:08:30;;;;;;;5.63;2.40;;;14.20;99.90;;;13.99;100.00;100833.81;5202646;28;20052;-48
2023/08/07 07:11:04;;;;;;;6.97;2.35;;;14.10;99.90;;;13.88;100.00;100830.06;5194779;28;20410;-49
2023/08/07 07:13:36;;;;;;;9.32;1.92;;;14.00;99.90;;;13.77;100.00;100839.44;5182449;28;20077;-48
2023/08/07 07:16:11;;;;;;;7.47;2.50;;;13.80;99.90;;;13.70;100.00;100832.31;5199952;28;20395;-48
2023/08/07 07:18:44;;;;;;;11.15;2.42;;;13.70;99.90;;;13.70;100.00;100845.41;5202825;28;20119;-50
2023/08/07 07:21:16;;;;;;;6.32;2.60;;;13.70;99.90;;;13.67;100.00;100850.56;5194198;28;20526;-51
2023/08/07 07:23:48;;;;;;;9.25;2.40;;;13.70;99.90;;;13.61;100.00;100851.28;5188177;28;20410;-50
2023/08/07 07:26:21;;;;;;;5.63;2.20;;;13.60;99.90;;;13.58;100.00;100849.50;5194706;28;20057;-50
2023/08/07 07:28:53;;;;;;;8.88;2.35;;;13.60;99.90;;;13.60;100.00;100862.63;5200422;28;20065;-48
2023/08/07 07:31:27;;;;;;;7.38;2.00;;;13.60;99.90;;;13.58;100.00;100866.94;5191000;28;20048;-48
2023/08/07 07:34:00;;;;;;;4.28;2.08;;;13.60;99.90;;;13.57;100.00;100867.81;5218508;28;20056;-48
2023/08/07 07:36:32;;;;;;;6.28;2.08;;;13.60;99.90;;;13.60;100.00;100874.84;5202064;28;20052;-49
2023/08/07 07:39:05;;;;;;;6.85;2.63;;;13.60;99.90;;;13.57;100.00;100860.81;5194243;28;20526;-49
2023/08/07 07:41:37;;;;;;;9.65;2.70;;;13.60;99.90;;;13.59;100.00;100863.47;5194250;28;20061;-49
2023/08/07 07:44:10;;;;;;;7.57;2.63;;;13.60;99.90;;;13.56;100.00;100868.63;5194036;28;20053;-49
2023/08/07 07:46:43;;;;;;;7.50;2.38;;;13.50;99.90;;;13.55;100.00;100875.59;5197260;28;20450;-48
2023/08/07 07:49:16;;;;;;;9.43;2.53;;;13.50;99.90;;;13.52;100.00;100870.31;5198442;28;20057;-49
2023/08/07 07:51:49;;;;;;;8.10;2.40;;;13.50;99.90;;;13.57;100.00;100875.66;5182070;28;20037;-48
2023/08/07 07:54:22;;;;;;;8.50;2.40;;;13.50;99.90;;;13.59;100.00;100884.44;5191995;28;20100;-49
2023/08/07 07:56:54;;;;;;;8.68;2.38;;;13.50;99.90;;;13.60;100.00;100886.19;5186746;28;20037;-48
2023/08/07 07:59:26;;;;;;;5.25;1.83;;;13.60;99.90;;;13.61;100.00;100894.94;5198713;28;20053;-48
2023/08/07 08:02:01;;;;;;;8.25;1.95;;;13.60;99.90;;;13.66;100.00;100896.81;5197499;28;20403;-48
2023/08/07 08:04:35;;;;;;;7.35;2.13;;;13.60;99.90;;;13.68;100.00;100892.50;5191907;28;20042;-48
2023/08/07 08:07:07;;;;;;;5.20;2.13;;;13.60;99.90;;;13.67;100.00;100903.81;5201736;28;20064;-48
2023/08/07 08:09:40;;;;;;;8.48;2.33;;;13.60;99.90;;;13.66;100.00;100902.06;5193554;28;20042;-49
2023/08/07 08:12:12;;;;;;;5.43;2.17;;;13.60;99.90;;;13.67;100.00;100893.34;5186165;28;20056;-49
2023/08/07 08:14:47;;;;;;;5.28;2.30;;;13.60;99.90;;;13.66;100.00;100904.69;5197223;28;20038;-50
2023/08/07 08:17:21;;;;;;;7.70;2.55;;;13.60;99.90;;;13.69;100.00;100896.91;5191055;28;20056;-49
2023/08/07 08:19:53;;;;;;;7.22;2.22;;;13.60;99.90;;;13.72;100.00;100899.59;5200302;28;20045;-48
2023/08/07 08:22:29;;;;;;;6.53;1.67;;;13.70;99.90;;;13.75;100.00;100915.34;5201763;28;20045;-50
2023/08/07 08:25:01;;;;;;;8.02;2.20;;;13.70;99.90;;;13.83;100.00;100915.56;5194531;28;20052;-49
2023/08/07 08:27:34;;;;;;;14.23;3.20;;;13.80;99.90;;;14.69;100.00;100907.84;5189201;28;20045;-51
2023/08/07 08:30:08;;;;;;;14.18;2.85;;;14.40;99.90;;;15.21;100.00;100914.09;5197000;28;20056;-50
2023/08/07 08:32:45;;;;;;;7.78;2.15;;;14.90;99.90;;;15.41;100.00;100928.44;5193717;28;20041;-52
2023/08/07 08:35:18;;;;;;;7.97;1.98;;;15.30;99.90;;;15.50;100.00;100930.31;5201468;28;20052;-50
2023/08/07 08:37:50;;;;;;;6.63;1.63;;;15.40;99.90;;;15.60;100.00;100939.25;5187748;28;20419;-51
2023/08/07 08:40:23;;;;;;;7.00;1.73;;;15.60;99.90;;;15.48;100.00;100927.69;5196632;28;20531;-49
2023/08/07 08:42:57;;;;;;;6.97;1.63;;;15.50;99.90;;;15.20;100.00;100934.22;5187203;28;20458;-49
2023/08/07 08:45:33;;;;;;;13.23;2.28;;;15.30;99.90;;;15.02;100.00;100928.59;5190536;28;20046;-51
2023/08/07 08:48:11;;;;;;;6.65;1.75;;;15.10;99.90;;;15.08;100.00;100935.72;5188267;28;20080;-46
2023/08/07 08:50:44;;;;;;;7.50;2.20;;;15.10;99.90;;;15.08;100.00;100943.59;5188684;28;20054;-48
2023/08/07 08:53:18;;;;;;;5.20;1.67;;;15.10;99.90;;;14.98;100.00;100942.53;5198011;28;20046;-47
2023/08/07 08:55:51;;;;;;;9.13;1.88;;;15.00;99.90;;;14.92;100.00;100945.91;5192670;28;20053;-49
2023/08/07 08:58:33;;;;;;;6.97;1.73;;;14.90;99.90;;;15.00;100.00;100942.56;5192114;28;20045;-49
2023/08/07 09:01:06;;;;;;;6.63;1.73;;;15.00;99.90;;;15.04;100.00;100953.13;5192631;28;20045;-50
2023/08/07 09:03:40;;;;;;;8.32;2.13;;;15.00;99.90;;;15.12;100.00;100955.91;5188794;28;20054;-50
2023/08/07 09:06:14;;;;;;;7.78;2.08;;;15.10;99.90;;;15.15;100.00;100962.13;5196406;28;20056;-52
2023/08/07 09:08:51;;;;;;;4.65;1.75;;;15.10;99.90;;;15.16;100.00;100961.25;5199768;28;20075;-51
2023/08/07 09:11:23;;;;;;;6.60;1.90;;;15.10;99.90;;;15.18;100.00;100969.16;5200227;28;20053;-53
2023/08/07 09:13:57;;;;;;;4.80;1.73;;;15.10;99.90;;;15.19;100.00;100961.31;5192407;28;20096;-51
2023/08/07 09:16:33;;;;;;;6.43;1.98;;;15.10;99.90;;;15.17;100.00;100973.53;5200099;28;20052;-50
2023/08/07 09:19:07;;;;;;;6.50;1.58;;;15.10;99.90;;;15.21;100.00;100969.22;5200201;28;20049;-51
2023/08/07 09:21:40;;;;;;;5.43;2.60;;;15.10;99.90;;;15.29;100.00;100958.84;5200029;28;20042;-51
2023/08/07 09:24:12;;;;;;;7.68;1.70;;;15.20;99.90;;;15.33;100.00;100972.09;5200031;28;20419;-51
2023/08/07 09:26:45;;;;;;;4.63;1.85;;;15.20;99.90;;;15.52;100.00;100973.28;5192593;28;20057;-49
2023/08/07 09:29:18;;;;;;;5.72;1.90;;;15.40;99.90;;;15.84;100.00;100973.84;5200227;28;20066;-51
2023/08/07 09:31:50;;;;;;;7.80;2.30;;;15.70;99.90;;;16.15;100.00;100982.22;5200693;28;20081;-51
2023/08/07 09:34:24;;;;;;;4.70;1.80;;;16.00;99.90;;;16.31;100.00;100989.50;5199245;28;20056;-50
2023/08/07 09:37:00;;;;;;;10.32;1.90;;;16.20;99.90;;;16.18;100.00;100977.91;5194234;28;20450;-49
2023/08/07 09:39:32;;;;;;;3.10;1.63;;;16.10;99.90;;;16.01;100.00;100985.53;5200127;28;20053;-50
2023/08/07 09:42:05;;;;;;;6.72;1.60;;;16.00;99.90;;;15.88;100.00;100988.81;5199455;28;20111;-50
2023/08/07 09:44:41;;;;;;;5.30;1.42;;;15.90;99.90;;;15.80;100.00;100994.81;5199231;28;20068;-49
2023/08/07 09:47:15;;;;;;;3.97;1.63;;;15.70;99.90;;;15.76;100.00;101000.88;5197948;28;20050;-49
2023/08/07 09:49:49;;;;;;;5.68;1.35;;;15.70;99.90;;;15.83;100.00;101010.63;5191893;28;20310;-50
2023/08/07 09:52:22;;;;;;;2.90;1.65;;;15.70;99.90;;;15.89;100.00;101014.25;5202120;28;20046;-49
2023/08/07 09:54:58;;;;;;;6.93;1.58;;;15.80;99.90;;;15.90;100.00;101008.13;5203748;28;20103;-49
2023/08/07 09:57:32;;;;;;;5.30;1.58;;;15.80;99.90;;;15.89;100.00;101002.84;5203664;28;20076;-48
2023/08/07 10:00:11;;;;;;;7.93;1.90;;;15.70;99.90;;;16.29;100.00;101017.50;5203552;28;20136;-49
2023/08/07 10:02:48;;;;;;;6.63;1.83;;;16.00;99.90;;;16.78;100.00;101012.97;5204101;28;20081;-48
2023/08/07 10:05:22;;;;;;;4.07;1.55;;;16.40;99.90;;;17.32;100.00;101018.00;5202987;28;20041;-49
2023/08/07 10:07:56;;;;;;;6.22;1.40;;;16.90;99.90;;;17.66;100.00;101017.44;5202773;28;20052;-48
2023/08/07 10:10:29;;;;;;;7.50;1.83;;;17.20;99.90;;;17.76;100.00;101032.53;5203117;28;20057;-49
2023/08/07 10:13:02;;;;;;;5.50;1.60;;;17.40;99.90;;;17.75;100.00;101033.41;5204029;28;20050;-52
2023/08/07 10:15:35;;;;;;;5.00;1.50;;;17.50;99.90;;;17.56;100.00;101038.47;5203497;28;20054;-51
2023/08/07 10:18:07;;;;;;;6.78;1.52;;;17.40;99.90;;;17.38;100.00;101040.00;5203577;28;20061;-52
2023/08/07 10:20:44;;;;;;;5.07;1.55;;;17.30;99.90;;;17.20;100.00;101048.59;5203029;28;20069;-51
2023/08/07 10:23:17;;;;;;;3.72;1.35;;;17.10;99.90;;;17.11;100.00;101046.72;5203477;28;20057;-51
2023/08/07 10:25:51;;;;;;;4.78;1.90;;;17.00;99.90;;;17.12;100.00;101037.97;5195694;28;20053;-49
2023/08/07 10:28:25;;;;;;;5.13;1.60;;;17.00;99.90;;;17.27;100.00;101034.63;5203560;28;20045;-50
2023/08/07 10:31:01;;;;;;;5.00;1.55;;;17.10;99.90;;;17.41;100.00;101038.31;5203245;28;20063;-50